Time;durP1;ratioP1;P1;durP2;ratioP2;P2;SDS_P1;SDS_P2;PMS_P1;PMS_P2;Temp;Humidity;BMP_temperature;BMP_pressure;BME280_temperature;BME280_humidity;BME280_pressure;Samples;Min_cycle;Max_cycle;Signal;HPM_P1;HPM_P2
2022/09/28 00:01:50;;;;;;;;;0.00;0.00;;;;;16.18;64.42;99497.94;5008259;28;47196;-70
2022/09/28 00:04:16;;;;;;;;;0.00;0.00;;;;;16.20;63.96;99503.19;5018472;28;45572;-67
2022/09/28 00:06:42;;;;;;;;;0.00;0.00;;;;;16.15;64.39;99507.78;5013009;28;45525;-66
2022/09/28 00:09:08;;;;;;;;;0.00;0.00;;;;;16.12;64.19;99511.41;5035574;28;46054;-68
2022/09/28 00:11:33;;;;;;;;;0.00;0.00;;;;;16.07;64.40;99500.19;5010899;28;46092;-67
2022/09/28 00:14:02;;;;;;;;;0.00;0.00;;;;;16.07;64.33;99508.97;5024965;28;45609;-70
2022/09/28 00:16:34;;;;;;;;;2.00;0.00;;;;;16.04;64.00;99514.38;5016210;28;45598;-67
2022/09/28 00:19:00;;;;;;;;;0.00;0.00;;;;;15.97;64.46;99518.19;5012637;28;45484;-68
2022/09/28 00:21:28;;;;;;;;;2.00;0.00;;;;;15.89;64.30;99509.69;5017734;28;46006;-67
2022/09/28 00:24:13;;;;;;;;;0.67;0.00;;;;;15.78;63.84;99502.19;5008794;28;45585;-68
2022/09/28 00:27:01;;;;;;;;;2.00;0.67;;;;;15.71;63.73;99505.13;5009403;28;45915;-69
2022/09/28 00:29:28;;;;;;;;;1.33;0.67;;;;;15.63;63.63;99502.75;5010690;28;45660;-69
2022/09/28 00:32:01;;;;;;;;;0.00;0.00;;;;;15.55;63.79;99502.19;5017223;28;45970;-67
2022/09/28 00:34:32;;;;;;;;;0.00;0.00;;;;;15.47;64.22;99497.19;5012510;28;45651;-66
2022/09/28 00:37:01;;;;;;;;;1.67;1.00;;;;;15.39;64.15;99493.97;5014002;28;45526;-65
2022/09/28 00:39:27;;;;;;;;;0.00;0.00;;;;;15.40;63.99;99503.59;5010453;28;45346;-65
2022/09/28 00:41:53;;;;;;;;;0.67;0.67;;;;;15.28;64.04;99483.84;5013949;28;45572;-68
2022/09/28 00:44:45;;;;;;;;;2.33;0.00;;;;;15.28;63.94;99504.97;5015798;28;45275;-66
2022/09/28 00:47:27;;;;;;;;;1.33;0.67;;;;;15.25;63.98;99502.41;5004328;28;45471;-66
2022/09/28 00:50:14;;;;;;;;;0.00;0.00;;;;;15.22;64.01;99506.03;5010201;28;45487;-66
2022/09/28 00:53:07;;;;;;;;;1.00;1.00;;;;;15.19;63.47;99507.94;5009290;28;47775;-67
2022/09/28 00:55:43;;;;;;;;;0.00;0.00;;;;;15.15;63.54;99504.53;5014249;28;45276;-67
2022/09/28 00:58:14;;;;;;;;;1.00;1.00;;;;;15.04;63.27;99490.88;5010358;28;45857;-65
2022/09/28 01:00:40;;;;;;;;;1.00;1.00;;;;;14.97;63.48;99482.34;5010557;28;45521;-66
2022/09/28 01:03:07;;;;;;;;;2.00;1.00;;;;;14.93;63.06;99483.34;5008873;28;47285;-65
2022/09/28 01:05:34;;;;;;;;;2.67;1.00;;;;;14.92;63.30;99486.03;5010005;28;45540;-66
2022/09/28 01:08:01;;;;;;;;;2.00;1.00;;;;;14.96;63.55;99499.06;5013121;28;45855;-69
2022/09/28 01:10:29;;;;;;;;;0.00;0.00;;;;;14.93;63.33;99493.91;5009668;28;45389;-65
2022/09/28 01:12:56;;;;;;;;;0.00;0.00;;;;;14.88;64.20;99489.69;5008926;28;45688;-65
2022/09/28 01:15:24;;;;;;;;;2.00;2.00;;;;;14.91;64.50;99501.00;5011007;28;45415;-68
2022/09/28 01:18:05;;;;;;;;;25.75;21.75;;;;;14.76;64.29;99481.31;5018882;28;45524;-66
2022/09/28 01:20:50;;;;;;;;;43.25;39.25;;;;;14.88;64.32;99492.31;5017075;28;45373;-66
2022/09/28 01:23:54;;;;;;;;;26.75;24.00;;;;;14.87;64.74;99490.63;5014408;28;45446;-68
2022/09/28 01:26:25;;;;;;;;;13.00;12.33;;;;;14.88;65.36;99489.69;5001941;28;45498;-66
2022/09/28 01:28:59;;;;;;;;;5.33;5.33;;;;;14.86;65.23;99481.00;5013699;28;45496;-67
2022/09/28 01:31:30;;;;;;;;;3.33;2.33;;;;;14.81;65.10;99465.34;5013332;28;45438;-66
2022/09/28 01:34:07;;;;;;;;;6.00;2.00;;;;;14.79;65.26;99467.16;5013255;28;46794;-68
2022/09/28 01:36:40;;;;;;;;;2.00;2.00;;;;;14.76;65.38;99467.25;5014992;28;45288;-67
2022/09/28 01:39:15;;;;;;;;;1.00;1.00;;;;;14.82;65.40;99480.22;5019670;28;45469;-67
2022/09/28 01:41:45;;;;;;;;;1.33;1.33;;;;;14.80;65.37;99482.06;5015017;28;45370;-66
2022/09/28 01:44:16;;;;;;;;;1.00;1.00;;;;;14.81;65.91;99487.28;5016185;28;45344;-71
2022/09/28 01:46:45;;;;;;;;;1.00;1.00;;;;;14.78;65.53;99474.22;5010911;28;45629;-65
2022/09/28 01:49:30;;;;;;;;;2.67;1.00;;;;;14.80;65.64;99475.00;5019236;28;45635;-65
2022/09/28 01:52:07;;;;;;;;;0.33;0.33;;;;;14.83;66.13;99481.97;5020572;28;45416;-67
2022/09/28 01:54:59;;;;;;;;;1.00;0.00;;;;;14.81;66.36;99476.75;5017435;28;46331;-68
2022/09/28 01:57:32;;;;;;;;;2.67;0.67;;;;;14.71;66.38;99456.91;5015967;28;45810;-65
2022/09/28 02:00:11;;;;;;;;;0.00;0.00;;;;;14.77;65.99;99467.22;5016593;28;45476;-70
2022/09/28 02:02:47;;;;;;;;;2.00;1.00;;;;;14.77;66.27;99464.56;5020058;28;45397;-69
2022/09/28 02:05:30;;;;;;;;;2.00;0.67;;;;;14.71;66.34;99463.94;5018531;28;48140;-66
2022/09/28 02:08:02;;;;;;;;;0.00;0.00;;;;;14.76;66.03;99470.78;5019469;28;45457;-67
2022/09/28 02:10:37;;;;;;;;;2.00;1.00;;;;;14.75;66.26;99461.13;5016259;28;45314;-67
2022/09/28 02:13:26;;;;;;;;;1.00;1.00;;;;;14.75;66.47;99463.78;5015380;28;45570;-67
2022/09/28 02:16:04;;;;;;;;;0.00;0.00;;;;;14.75;66.52;99455.00;5015203;28;45523;-65
2022/09/28 02:18:30;;;;;;;;;2.00;0.00;;;;;14.69;66.39;99447.31;5018146;28;45362;-66
2022/09/28 02:21:12;;;;;;;;;1.00;0.00;;;;;14.75;66.51;99465.56;5020253;28;45308;-66
2022/09/28 02:23:49;;;;;;;;;1.00;0.33;;;;;14.75;66.21;99469.03;5018516;28;45429;-66
2022/09/28 02:26:21;;;;;;;;;1.00;0.33;;;;;14.76;66.55;99467.25;5019736;28;46188;-66
2022/09/28 02:28:47;;;;;;;;;1.00;0.00;;;;;14.74;66.31;99461.22;5014457;28;45509;-66
2022/09/28 02:31:12;;;;;;;;;2.67;1.00;;;;;14.68;66.08;99449.09;5015216;28;45492;-67
2022/09/28 02:33:45;;;;;;;;;1.00;0.00;;;;;14.74;66.11;99456.78;5015570;28;45532;-65
2022/09/28 02:36:11;;;;;;;;;1.00;1.00;;;;;14.69;66.03;99447.31;5013990;28;47949;-66
2022/09/28 02:38:37;;;;;;;;;0.00;0.00;;;;;14.73;66.23;99447.16;5015433;28;45795;-66
2022/09/28 02:41:19;;;;;;;;;0.00;0.00;;;;;14.67;65.80;99447.38;5015788;28;45486;-66
2022/09/28 02:43:57;;;;;;;;;3.33;0.33;;;;;14.72;65.75;99455.97;5015403;28;45568;-67
2022/09/28 02:46:36;;;;;;;;;0.00;0.00;;;;;14.71;66.00;99467.44;5016960;28;46515;-66
2022/09/28 02:49:36;;;;;;;;;3.00;0.00;;;;;14.56;65.46;99431.06;5019596;28;45396;-68
2022/09/28 02:52:50;;;;;;;;;0.00;0.00;;;;;14.60;65.65;99435.34;5012311;28;45358;-70
2022/09/28 02:55:38;;;;;;;;;2.00;1.00;;;;;14.69;65.83;99450.81;5018011;28;45551;-66
2022/09/28 02:58:25;;;;;;;;;0.33;0.33;;;;;14.66;65.43;99448.28;5018295;28;46560;-66
2022/09/28 03:01:05;;;;;;;;;2.67;0.00;;;;;14.65;65.74;99458.88;5017254;28;45398;-67
2022/09/28 03:03:49;;;;;;;;;1.33;1.33;;;;;14.63;65.66;99459.78;5014881;28;45385;-67
2022/09/28 03:06:25;;;;;;;;;0.00;0.00;;;;;14.61;65.39;99443.16;5013634;28;45821;-66
2022/09/28 03:08:59;;;;;;;;;1.00;0.00;;;;;14.66;65.76;99456.19;5013351;28;47930;-66
2022/09/28 03:11:35;;;;;;;;;2.33;0.67;;;;;14.56;65.26;99447.75;5015001;28;45473;-66
2022/09/28 03:14:02;;;;;;;;;0.00;0.00;;;;;14.56;65.59;99449.53;5013699;28;45560;-69
2022/09/28 03:16:30;;;;;;;;;1.00;1.00;;;;;14.58;65.21;99448.56;5014801;28;45420;-65
2022/09/28 03:18:56;;;;;;;;;1.00;0.00;;;;;14.37;65.25;99421.13;5015509;28;45441;-68
2022/09/28 03:21:22;;;;;;;;;0.00;0.00;;;;;14.51;65.40;99451.44;5018886;28;45421;-65
2022/09/28 03:23:48;;;;;;;;;2.00;1.00;;;;;14.52;65.67;99451.38;5017149;28;45521;-66
2022/09/28 03:26:15;;;;;;;;;1.33;1.00;;;;;14.58;65.84;99456.47;5013919;28;45458;-66
2022/09/28 03:28:48;;;;;;;;;1.67;0.00;;;;;14.56;65.73;99458.28;5012851;28;48084;-67
2022/09/28 03:31:13;;;;;;;;;1.00;1.00;;;;;14.40;66.37;99457.06;5014120;28;45349;-70
2022/09/28 03:33:39;;;;;;;;;1.00;1.00;;;;;14.38;66.52;99451.84;5014320;28;45410;-70
2022/09/28 03:36:07;;;;;;;;;1.00;0.00;;;;;14.38;65.91;99451.84;5015263;28;45832;-66
2022/09/28 03:38:33;;;;;;;;;1.00;1.00;;;;;14.38;66.02;99457.13;5014028;28;45602;-69
2022/09/28 03:40:59;;;;;;;;;0.67;0.67;;;;;14.47;65.81;99465.63;4996879;28;45419;-66
2022/09/28 03:43:27;;;;;;;;;0.33;0.33;;;;;14.35;66.25;99454.56;5017637;28;45328;-65
2022/09/28 03:45:58;;;;;;;;;2.00;0.00;;;;;14.46;65.30;99469.16;5018530;28;45322;-66
2022/09/28 03:48:25;;;;;;;;;2.00;1.00;;;;;14.46;66.01;99482.34;5014996;28;45524;-66
2022/09/28 03:50:59;;;;;;;;;2.00;0.33;;;;;14.46;65.84;99482.34;5015241;28;45280;-66
2022/09/28 03:53:24;;;;;;;;;0.00;0.00;;;;;14.45;65.80;99475.34;5017080;28;45342;-66
2022/09/28 03:55:52;;;;;;;;;1.00;0.67;;;;;14.40;66.41;99476.38;5015208;28;45620;-67
2022/09/28 03:58:19;;;;;;;;;1.33;0.00;;;;;14.34;66.46;99475.72;5013593;28;45457;-66
2022/09/28 04:00:45;;;;;;;;;1.67;1.67;;;;;14.37;66.98;99479.09;5032043;28;45353;-65
2022/09/28 04:03:10;;;;;;;;;1.00;1.00;;;;;14.28;66.41;99468.84;5012451;28;45445;-66
2022/09/28 04:05:36;;;;;;;;;2.00;0.00;;;;;14.31;66.51;99481.09;5014662;28;45561;-66
2022/09/28 04:08:03;;;;;;;;;2.00;0.33;;;;;14.24;66.76;99480.44;5014251;28;46061;-67
2022/09/28 04:10:30;;;;;;;;;1.33;1.00;;;;;14.26;66.91;99488.25;5014776;28;45393;-66
2022/09/28 04:12:56;;;;;;;;;1.33;0.00;;;;;14.21;67.54;99496.31;4999854;28;45577;-65
2022/09/28 04:15:23;;;;;;;;;0.00;0.00;;;;;14.16;67.30;99491.19;5015114;28;45439;-66
2022/09/28 04:17:49;;;;;;;;;3.00;1.00;;;;;14.15;67.87;99496.53;5014147;28;45677;-66
2022/09/28 04:20:15;;;;;;;;;0.33;0.33;;;;;14.15;67.70;99486.84;5014489;28;45521;-67
2022/09/28 04:22:41;;;;;;;;;0.00;0.00;;;;;14.11;67.35;99489.63;5016063;28;45318;-64
2022/09/28 04:25:08;;;;;;;;;2.00;1.00;;;;;13.99;67.76;99497.00;5014526;28;45449;-66
2022/09/28 04:30:20;;;;;;;;;2.00;1.00;;;;;14.12;67.67;99496.63;5005443;28;45425;-66
2022/09/28 04:32:46;;;;;;;;;3.00;1.00;;;;;14.17;67.16;99494.72;5014162;28;45394;-66
2022/09/28 04:35:12;;;;;;;;;3.00;1.00;;;;;14.16;67.18;99482.44;5015029;28;45616;-66
2022/09/28 04:37:39;;;;;;;;;1.00;1.00;;;;;14.25;66.29;99499.72;5017657;28;46518;-66
2022/09/28 04:40:05;;;;;;;;;1.00;1.00;;;;;14.25;66.77;99502.34;5014114;28;45287;-65
2022/09/28 04:42:30;;;;;;;;;2.00;0.67;;;;;14.21;66.78;99493.69;5013435;28;45458;-66
2022/09/28 04:44:57;;;;;;;;;0.33;0.00;;;;;14.16;66.23;99498.22;5013832;28;45425;-66
2022/09/28 04:47:23;;;;;;;;;1.33;1.00;;;;;14.28;66.12;99513.63;5013721;28;45700;-67
2022/09/28 04:49:49;;;;;;;;;1.00;1.00;;;;;14.26;65.93;99504.94;5013736;28;45592;-67
2022/09/28 04:52:15;;;;;;;;;2.33;1.00;;;;;14.31;66.12;99513.56;4995843;28;45387;-66
2022/09/28 04:54:41;;;;;;;;;1.00;1.00;;;;;14.26;66.38;99507.59;5012138;28;45472;-67
2022/09/28 04:57:06;;;;;;;;;2.00;0.00;;;;;14.29;65.94;99502.22;5012675;28;45697;-65
2022/09/28 04:59:32;;;;;;;;;1.00;1.00;;;;;14.26;66.05;99499.69;5012439;28;45475;-67
2022/09/28 05:01:58;;;;;;;;;0.33;0.33;;;;;14.33;65.96;99518.75;5012817;28;45472;-66
2022/09/28 05:04:23;;;;;;;;;3.00;3.00;;;;;14.31;65.81;99510.91;5012297;28;45465;-67
2022/09/28 05:06:49;;;;;;;;;1.00;1.00;;;;;14.19;65.92;99493.75;5015203;28;46185;-68
2022/09/28 05:09:15;;;;;;;;;0.00;0.00;;;;;14.28;65.98;99507.50;5014881;28;45976;-66
2022/09/28 05:11:40;;;;;;;;;1.00;1.00;;;;;14.25;66.35;99502.34;5016228;28;45406;-66
2022/09/28 05:14:06;;;;;;;;;1.00;1.00;;;;;14.32;66.28;99512.63;5018732;28;45529;-66
2022/09/28 05:16:35;;;;;;;;;1.00;1.00;;;;;14.25;66.45;99505.00;5016479;28;46185;-69
2022/09/28 05:19:00;;;;;;;;;2.00;1.00;;;;;14.20;67.15;99505.13;5016755;28;45485;-69
2022/09/28 05:21:28;;;;;;;;;2.00;2.00;;;;;14.19;67.15;99498.16;5015482;28;46107;-70
2022/09/28 05:23:55;;;;;;;;;2.00;1.00;;;;;13.86;66.59;99464.09;5017621;28;45512;-70
2022/09/28 05:26:21;;;;;;;;;1.00;1.00;;;;;14.06;67.02;99496.81;5018156;28;45617;-68
2022/09/28 05:28:57;;;;;;;;;2.33;1.00;;;;;14.16;66.79;99500.88;5019382;28;45521;-67
2022/09/28 05:31:22;;;;;;;;;2.00;2.00;;;;;13.97;66.41;99464.59;5016645;28;45515;-67
2022/09/28 05:33:48;;;;;;;;;2.00;2.00;;;;;14.09;67.02;99481.78;5016301;28;45463;-68
2022/09/28 05:36:13;;;;;;;;;1.00;1.00;;;;;14.15;66.50;99500.00;5018634;28;47546;-67
2022/09/28 05:38:52;;;;;;;;;1.33;1.33;;;;;14.05;65.95;99479.28;5014699;28;45438;-71
2022/09/28 05:41:17;;;;;;;;;0.67;0.67;;;;;14.08;66.21;99500.28;5015329;28;45671;-67
2022/09/28 05:43:44;;;;;;;;;2.33;2.00;;;;;14.14;65.79;99498.31;5016258;28;45465;-69
2022/09/28 05:46:10;;;;;;;;;1.33;1.33;;;;;14.13;66.59;99493.94;5019497;28;46473;-66
2022/09/28 05:48:36;;;;;;;;;1.67;1.67;;;;;14.06;67.55;99508.22;5014334;28;45488;-65
2022/09/28 05:51:01;;;;;;;;;3.00;2.33;;;;;13.97;67.89;99508.50;5017077;28;45427;-64
2022/09/28 05:53:27;;;;;;;;;5.33;1.67;;;;;14.07;67.45;99520.47;5016365;28;45972;-66
2022/09/28 05:55:56;;;;;;;;;1.00;1.00;;;;;14.07;66.60;99506.44;5016682;28;46364;-66
2022/09/28 05:58:22;;;;;;;;;2.00;1.00;;;;;14.24;66.59;99527.84;5016472;28;45455;-65
2022/09/28 06:00:56;;;;;;;;;2.00;2.00;;;;;14.16;66.44;99529.84;5015747;28;46084;-70
2022/09/28 06:03:22;;;;;;;;;2.67;1.00;;;;;14.17;67.57;99526.31;5016702;28;45679;-69
2022/09/28 06:05:48;;;;;;;;;1.33;1.33;;;;;14.09;66.40;99515.16;5015754;28;45406;-67
2022/09/28 06:08:13;;;;;;;;;4.67;1.00;;;;;14.25;66.78;99537.44;5016195;28;45478;-65
2022/09/28 06:10:39;;;;;;;;;2.00;2.00;;;;;14.26;66.72;99536.56;5014348;28;46777;-67
2022/09/28 06:13:05;;;;;;;;;2.00;2.00;;;;;14.23;67.01;99535.78;5014632;28;45636;-66
2022/09/28 06:15:34;;;;;;;;;3.00;1.67;;;;;14.21;67.05;99534.06;5015982;28;45524;-66
2022/09/28 06:18:06;;;;;;;;;2.00;1.33;;;;;14.22;67.03;99519.13;5014547;28;45428;-65
2022/09/28 06:20:34;;;;;;;;;1.67;1.67;;;;;14.17;66.87;99518.41;4997172;28;45473;-67
2022/09/28 06:23:00;;;;;;;;;2.00;2.00;;;;;14.26;66.68;99536.56;5017646;28;45410;-66
2022/09/28 06:25:26;;;;;;;;;2.67;1.00;;;;;14.30;66.15;99535.53;5016843;28;45388;-67
2022/09/28 06:28:03;;;;;;;;;3.00;2.00;;;;;14.29;66.04;99520.63;5015008;28;45346;-67
2022/09/28 06:30:33;;;;;;;;;6.00;2.00;;;;;14.31;66.12;99541.66;5015782;28;45312;-66
2022/09/28 06:33:00;;;;;;;;;6.67;3.00;;;;;14.30;66.23;99546.06;5014024;28;45650;-68
2022/09/28 06:35:29;;;;;;;;;3.00;3.00;;;;;14.36;66.12;99545.88;5001422;28;45483;-67
2022/09/28 06:37:55;;;;;;;;;2.00;2.00;;;;;14.46;65.20;99542.94;5028346;28;46035;-65
2022/09/28 06:40:22;;;;;;;;;2.00;2.00;;;;;14.41;65.27;99528.13;5015943;28;45651;-69
2022/09/28 06:43:14;;;;;;;;;1.00;1.00;;;;;14.57;64.76;99548.75;5031326;28;45389;-66
2022/09/28 06:45:41;;;;;;;;;3.67;2.33;;;;;14.63;64.33;99548.53;5011642;28;47166;-66
2022/09/28 06:48:09;;;;;;;;;1.67;1.67;;;;;14.57;64.41;99546.97;5015647;28;45523;-66
2022/09/28 06:50:41;;;;;;;;;1.00;1.00;;;;;14.75;63.74;99550.75;5015585;28;45702;-69
2022/09/28 06:53:12;;;;;;;;;2.00;2.00;;;;;14.90;63.43;99561.69;5018921;28;45381;-67
2022/09/28 06:55:42;;;;;;;;;2.33;1.00;;;;;14.84;63.35;99549.59;5015419;28;46396;-66
2022/09/28 06:58:13;;;;;;;;;2.00;2.00;;;;;15.01;63.27;99567.44;5014111;28;45354;-65
2022/09/28 07:00:40;;;;;;;;;1.33;1.33;;;;;15.08;63.17;99571.59;5017293;28;45428;-67
2022/09/28 07:03:16;;;;;;;;;3.67;2.67;;;;;15.22;62.78;99566.69;5019720;28;45477;-71
2022/09/28 07:05:50;;;;;;;;;3.00;3.00;;;;;15.36;62.08;99573.25;5014352;28;45517;-69
2022/09/28 07:08:17;;;;;;;;;3.33;1.33;;;;;15.40;61.98;99575.72;5014781;28;45547;-68
2022/09/28 07:10:47;;;;;;;;;2.00;2.00;;;;;15.42;61.78;99578.28;5019696;28;45484;-68
2022/09/28 07:13:14;;;;;;;;;2.00;2.00;;;;;15.33;61.52;99565.44;5015339;28;45525;-69
2022/09/28 07:15:41;;;;;;;;;3.00;2.00;;;;;15.40;61.42;99582.75;5012671;28;45561;-67
2022/09/28 07:18:07;;;;;;;;;4.00;2.67;;;;;15.36;61.52;99576.75;5017762;28;45524;-66
2022/09/28 07:20:35;;;;;;;;;4.00;2.33;;;;;15.50;60.96;99592.09;5019056;28;45465;-67
2022/09/28 07:23:03;;;;;;;;;3.67;2.00;;;;;15.52;60.76;99584.97;5020927;28;45322;-71
2022/09/28 07:25:31;;;;;;;;;2.33;1.33;;;;;15.54;60.69;99582.25;5045623;28;45544;-64
2022/09/28 07:27:59;;;;;;;;;2.00;2.00;;;;;15.55;60.46;99589.28;5018789;28;45500;-66
2022/09/28 07:30:28;;;;;;;;;3.00;1.67;;;;;15.57;60.04;99584.81;5017620;28;45469;-66
2022/09/28 07:32:54;;;;;;;;;2.33;2.00;;;;;15.56;60.27;99585.72;5017130;28;45457;-67
2022/09/28 07:35:21;;;;;;;;;0.00;0.00;;;;;15.63;60.08;99593.34;5016784;28;45429;-68
2022/09/28 07:37:46;;;;;;;;;5.33;2.67;;;;;15.67;58.96;99596.75;5017417;28;45521;-66
2022/09/28 07:43:03;;;;;;;;;10.33;9.00;;;;;15.74;58.77;99592.13;5014211;28;45382;-65
2022/09/28 07:45:28;;;;;;;;;11.67;11.67;;;;;15.71;58.84;99593.09;5013368;28;46046;-64
2022/09/28 07:47:54;;;;;;;;;12.67;11.00;;;;;15.79;58.42;99608.66;5014072;28;45459;-66
2022/09/28 07:50:20;;;;;;;;;9.33;8.00;;;;;15.72;58.47;99592.19;5012796;28;45737;-68
2022/09/28 07:52:48;;;;;;;;;5.33;5.00;;;;;15.84;58.15;99601.41;5003245;28;45576;-66
2022/09/28 07:55:14;;;;;;;;;7.00;4.00;;;;;15.84;57.76;99601.41;5012572;28;47389;-65
2022/09/28 07:57:54;;;;;;;;;5.00;4.33;;;;;15.87;57.26;99606.56;5018181;28;45446;-66
2022/09/28 08:00:21;;;;;;;;;2.00;2.00;;;;;15.90;57.73;99612.63;5014395;28;45729;-67
2022/09/28 08:02:47;;;;;;;;;2.00;2.00;;;;;15.99;57.54;99623.72;5015710;28;45572;-67
2022/09/28 08:05:14;;;;;;;;;6.33;3.00;;;;;16.05;57.41;99619.09;5018486;28;45550;-69
2022/09/28 08:07:42;;;;;;;;;2.33;2.33;;;;;15.92;56.75;99593.19;4998248;28;45408;-66
2022/09/28 08:10:08;;;;;;;;;2.00;2.00;;;;;16.11;56.60;99608.31;5013848;28;45380;-68
2022/09/28 08:12:34;;;;;;;;;1.33;1.33;;;;;16.31;56.37;99623.34;5014695;28;45543;-69
2022/09/28 08:15:00;;;;;;;;;3.00;2.00;;;;;16.44;55.51;99621.06;5014015;28;46145;-68
2022/09/28 08:17:26;;;;;;;;;2.00;1.00;;;;;16.45;54.74;99621.97;5014483;28;45471;-68
2022/09/28 08:22:37;;;;;;;;;1.33;1.33;;;;;16.59;53.95;99610.84;5014403;28;45437;-65
2022/09/28 08:25:03;;;;;;;;;1.00;1.00;;;;;16.54;53.92;99614.53;5013988;28;45487;-68
2022/09/28 08:27:29;;;;;;;;;2.00;2.00;;;;;16.58;52.95;99627.59;5017734;28;45442;-67
2022/09/28 08:29:55;;;;;;;;;1.00;1.00;;;;;16.53;53.39;99636.56;5016342;28;45517;-66
2022/09/28 08:32:21;;;;;;;;;3.00;1.00;;;;;16.58;52.76;99640.81;5018226;28;45583;-68
2022/09/28 08:34:47;;;;;;;;;0.33;0.33;;;;;16.52;53.06;99623.44;5017384;28;46183;-68
2022/09/28 08:37:12;;;;;;;;;0.67;0.67;;;;;16.37;52.49;99598.47;5017457;28;45503;-65
2022/09/28 08:39:40;;;;;;;;;1.00;1.00;;;;;16.69;52.35;99633.31;5014834;28;45435;-67
2022/09/28 08:42:42;;;;;;;;;0.67;0.67;;;;;16.80;52.05;99635.53;5013995;28;45553;-67
2022/09/28 08:45:18;;;;;;;;;0.67;0.67;;;;;16.98;51.53;99633.94;4990629;28;45497;-64
2022/09/28 08:48:43;;;;;;;;;1.00;1.00;;;;;17.00;51.82;99621.50;5004473;28;45627;-69
2022/09/28 08:51:18;;;;;;;;;1.00;1.00;;;;;17.28;51.09;99635.28;5003924;28;46247;-64
2022/09/28 08:53:52;;;;;;;;;2.00;1.00;;;;;17.53;50.25;99628.91;5011188;28;45711;-70
2022/09/28 08:56:46;;;;;;;;;0.67;0.67;;;;;17.74;49.55;99632.38;5012127;28;47732;-70
2022/09/28 08:59:18;;;;;;;;;1.00;1.00;;;;;17.79;49.75;99631.25;4993359;28;45480;-66
2022/09/28 09:01:50;;;;;;;;;0.67;0.67;;;;;17.86;50.06;99637.16;5012744;28;45485;-65
2022/09/28 09:04:16;;;;;;;;;3.00;1.67;;;;;17.89;49.39;99629.09;5013301;28;45496;-65
2022/09/28 09:07:03;;;;;;;;;2.33;1.00;;;;;17.94;49.09;99640.34;5012080;28;45965;-65
2022/09/28 09:09:56;;;;;;;;;2.00;0.67;;;;;17.96;48.49;99637.59;5012173;28;45502;-67
2022/09/28 09:12:42;;;;;;;;;0.67;0.00;;;;;18.07;48.18;99637.09;5002738;28;45866;-66
2022/09/28 09:15:37;;;;;;;;;1.00;1.00;;;;;17.93;48.58;99625.34;5012175;28;45494;-66
2022/09/28 09:18:21;;;;;;;;;1.33;1.00;;;;;17.97;49.20;99634.88;5016869;28;45461;-65
2022/09/28 09:20:49;;;;;;;;;1.00;1.00;;;;;18.03;48.47;99639.03;5017660;28;45495;-66
2022/09/28 09:23:30;;;;;;;;;3.00;2.00;;;;;17.95;47.49;99630.59;5017579;28;45485;-68
2022/09/28 09:26:09;;;;;;;;;0.00;0.00;;;;;17.98;47.61;99641.03;5016823;28;45549;-66
2022/09/28 09:28:44;;;;;;;;;1.00;1.00;;;;;18.05;47.60;99641.63;5011518;28;45500;-65
2022/09/28 09:31:15;;;;;;;;;0.00;0.00;;;;;18.07;47.44;99643.25;5011674;28;45654;-66
2022/09/28 09:33:53;;;;;;;;;1.00;1.00;;;;;18.11;47.23;99644.84;5012804;28;45418;-66
2022/09/28 09:36:49;;;;;;;;;1.67;1.00;;;;;18.29;47.36;99653.72;5017543;28;45341;-65
2022/09/28 09:39:15;;;;;;;;;2.00;1.00;;;;;18.53;46.46;99648.19;5011958;28;45479;-65
2022/09/28 09:41:49;;;;;;;;;1.00;1.00;;;;;18.61;46.40;99643.38;5003058;28;45572;-65
2022/09/28 09:44:24;;;;;;;;;1.33;1.00;;;;;18.65;46.29;99634.34;5017489;28;45350;-68
2022/09/28 09:47:05;;;;;;;;;2.00;1.00;;;;;18.73;45.87;99637.47;5015470;28;45302;-67
2022/09/28 09:49:40;;;;;;;;;1.00;1.00;;;;;18.89;45.44;99639.38;5012784;28;46103;-67
2022/09/28 09:52:13;;;;;;;;;1.33;1.33;;;;;19.02;46.43;99622.78;5011504;28;45488;-66
2022/09/28 09:54:52;;;;;;;;;1.00;1.00;;;;;19.17;44.71;99631.78;5011913;28;45307;-66
2022/09/28 09:57:25;;;;;;;;;1.00;1.00;;;;;19.30;44.07;99637.31;5021066;28;45318;-72
2022/09/28 09:59:51;;;;;;;;;3.00;1.33;;;;;19.40;44.39;99632.38;5017312;28;45463;-67
2022/09/28 10:02:33;;;;;;;;;3.33;1.00;;;;;19.52;43.93;99614.94;5014029;28;45473;-72
2022/09/28 10:05:15;;;;;;;;;2.00;2.00;;;;;19.80;43.47;99627.66;5020387;28;45445;-66
2022/09/28 10:08:11;;;;;;;;;0.67;0.67;;;;;20.16;43.02;99630.09;5019067;28;45504;-71
2022/09/28 10:10:48;;;;;;;;;2.33;2.33;;;;;20.33;42.67;99624.72;5014878;28;46734;-66
2022/09/28 10:13:14;;;;;;;;;2.00;2.00;;;;;20.49;41.76;99614.03;5016273;28;45307;-68
2022/09/28 10:15:41;;;;;;;;;4.33;1.33;;;;;20.67;40.73;99590.91;5016158;28;46403;-70
2022/09/28 10:18:12;;;;;;;;;0.00;0.00;;;;;21.11;40.58;99618.50;5030700;28;45773;-70
2022/09/28 10:20:40;;;;;;;;;1.67;1.00;;;;;21.45;40.09;99627.16;5018043;28;45911;-69
2022/09/28 10:23:32;;;;;;;;;2.00;0.33;;;;;21.45;39.96;99597.84;5016082;28;45497;-72
2022/09/28 10:26:04;;;;;;;;;1.33;1.00;;;;;21.34;40.00;99628.63;5015099;28;45411;-70
2022/09/28 10:28:55;;;;;;;;;3.00;3.00;;;;;20.90;40.25;99608.16;5016155;28;46062;-71
2022/09/28 10:31:41;;;;;;;;;1.67;1.00;;;;;20.68;40.79;99624.53;5017556;28;46365;-68
2022/09/28 10:34:12;;;;;;;;;3.00;2.00;;;;;20.43;42.06;99619.72;5015918;28;46013;-70
2022/09/28 10:37:02;;;;;;;;;2.00;2.00;;;;;20.49;42.08;99621.19;5006126;28;45309;-69
2022/09/28 10:39:30;;;;;;;;;4.67;1.33;;;;;20.20;41.33;99618.34;5015645;28;45655;-69
2022/09/28 10:42:01;;;;;;;;;3.33;2.00;;;;;19.81;42.47;99618.72;5019083;28;46155;-65
2022/09/28 10:44:27;;;;;;;;;1.67;1.67;;;;;20.21;41.56;99625.38;5019541;28;45600;-65
2022/09/28 10:47:00;;;;;;;;;2.00;2.00;;;;;21.15;39.64;99620.91;5019311;28;45646;-70
2022/09/28 10:49:27;;;;;;;;;1.33;1.33;;;;;21.25;39.05;99617.69;5018996;28;45536;-65
2022/09/28 10:51:57;;;;;;;;;2.00;2.00;;;;;21.06;39.53;99612.59;5019298;28;46511;-67
2022/09/28 10:54:25;;;;;;;;;1.00;1.00;;;;;21.80;39.07;99617.00;5007960;28;45292;-71
2022/09/28 10:56:54;;;;;;;;;3.00;1.33;;;;;23.47;36.94;99607.88;5018810;28;45539;-69
2022/09/28 10:59:28;;;;;;;;;2.00;2.00;;;;;26.12;33.88;99607.78;5017839;28;45462;-69
2022/09/28 11:02:02;;;;;;;;;2.00;2.00;;;;;25.21;33.85;99606.00;5018933;28;46190;-70
2022/09/28 11:04:40;;;;;;;;;3.00;1.00;;;;;25.56;33.85;99601.44;5016029;28;45595;-65
2022/09/28 11:07:17;;;;;;;;;3.00;2.00;;;;;24.88;33.31;99600.38;5014446;28;45477;-66
2022/09/28 11:09:48;;;;;;;;;3.00;2.00;;;;;24.38;34.26;99594.25;5016274;28;45309;-63
2022/09/28 11:12:20;;;;;;;;;4.33;3.00;;;;;25.63;32.37;99608.97;5015006;28;48035;-64
2022/09/28 11:14:51;;;;;;;;;3.67;2.00;;;;;23.85;32.65;99565.09;5002210;28;45470;-64
2022/09/28 11:17:30;;;;;;;;;3.00;2.00;;;;;23.02;35.55;99616.25;5016371;28;45339;-66
2022/09/28 11:20:16;;;;;;;;;4.00;2.00;;;;;22.47;36.82;99625.25;5013950;28;45460;-64
2022/09/28 11:22:43;;;;;;;;;3.67;2.33;;;;;22.17;39.17;99626.22;5014130;28;45608;-64
2022/09/28 11:25:24;;;;;;;;;1.00;1.00;;;;;21.91;39.41;99627.00;5014765;28;45758;-65
2022/09/28 11:27:49;;;;;;;;;1.00;1.00;;;;;21.61;36.95;99617.28;5017992;28;45564;-66
2022/09/28 11:30:39;;;;;;;;;3.00;1.00;;;;;21.41;38.99;99617.66;5019062;28;45473;-65
2022/09/28 11:33:28;;;;;;;;;3.00;2.00;;;;;22.57;36.96;99618.34;5016890;28;47763;-64
2022/09/28 11:36:12;;;;;;;;;2.00;2.00;;;;;22.82;35.71;99619.38;5017085;28;45520;-65
2022/09/28 11:39:07;;;;;;;;;3.00;2.00;;;;;22.56;36.71;99615.75;5018261;28;45440;-65
2022/09/28 11:41:51;;;;;;;;;3.33;3.00;;;;;22.10;37.18;99624.03;5016990;28;45757;-68
2022/09/28 11:44:36;;;;;;;;;21.67;16.00;;;;;21.59;37.49;99611.19;5012457;28;45755;-65
2022/09/28 11:47:20;;;;;;;;;11.00;11.00;;;;;21.48;37.84;99614.53;5015356;28;45435;-68
2022/09/28 11:49:56;;;;;;;;;210.00;186.50;;;;;21.38;40.18;99600.03;5015030;28;45422;-66
2022/09/28 11:52:28;;;;;;;;;256.50;225.00;;;;;20.95;41.86;99607.91;5012681;28;45785;-66
2022/09/28 11:55:03;;;;;;;;;158.50;133.50;;;;;20.61;40.57;99615.19;5015518;28;47376;-65
2022/09/28 11:57:40;;;;;;;;;78.00;63.50;;;;;20.23;39.70;99610.19;5017755;28;45408;-68
2022/09/28 12:00:19;;;;;;;;;46.75;37.50;;;;;19.94;40.24;99617.13;5016220;28;45491;-66
2022/09/28 12:03:03;;;;;;;;;26.33;24.00;;;;;19.76;40.55;99610.16;5013550;28;45441;-70
2022/09/28 12:05:38;;;;;;;;;10.67;9.33;;;;;19.71;40.93;99613.06;5013201;28;45460;-68